Freeport — CZ5364 — position and weather

sailwx.info

Track history (hours):
 
Tides and Currents Weather Stations Pressure Air Temp Water Temp Dewpoint Dewpoint Depression Visibility Wind Speed Wind Dir Waves Ship Positions

Freeport

Last reported at 2018-Jun-25 08:00 UTC. Time now 2018-Jun-25 08:03 UTC.
Position N 49°12' W 123°05'.

Length 22 m; draft 3.1 m.

Type: Fishing. MMSI: 316006988.

Date/timePositionNaut miles runAvg speedWind from/ knotsBaromVisibWave heightAir tempDewpointWater temp
2018-Jun-25 08:00N 49°12' W 123°05'0 0.0
2018-Jun-25 07:30N 49°12' W 123°05'0 0.0
2018-Jun-25 07:00N 49°12' W 123°05'0 0.0
2018-Jun-25 06:27N 49°12' W 123°05'0 0.0
2018-Jun-25 05:59N 49°12' W 123°05'0 0.0
2018-Jun-25 05:29N 49°12' W 123°05'0 0.0
2018-Jun-25 05:00N 49°12' W 123°05'0 0.0
2018-Jun-25 04:30N 49°12' W 123°05'0 0.0
2018-Jun-25 04:00N 49°12' W 123°05'0 0.0
2018-Jun-25 03:30N 49°12' W 123°05'0 0.0
2018-Jun-25 03:00N 49°12' W 123°05'0 0.0
2018-Jun-25 02:30N 49°12' W 123°05'0 0.0
2018-Jun-25 01:59N 49°12' W 123°05'0 0.0
2018-Jun-25 01:30N 49°12' W 123°05'0 0.0
2018-Jun-25 01:00N 49°12' W 123°05'0 0.0
2018-Jun-25 00:30N 49°12' W 123°05'0 0.0
2018-Jun-25 00:00N 49°12' W 123°05'0 0.0
2018-Jun-24 23:30N 49°12' W 123°05'0 0.0
2018-Jun-24 23:00N 49°12' W 123°05'0 0.0
2018-Jun-24 22:30N 49°12' W 123°05'0 0.0
2018-Jun-24 22:00N 49°12' W 123°05'1 2.8
2018-Jun-24 21:29N 49°12' W 123°08'4 8.4
2018-Jun-24 21:00N 49°14' W 123°13'62 7.9
2018-Jun-24 13:10N 49°42' W 124°38'1 7.6
2018-Jun-24 13:00N 49°42' W 124°39'4 7.6
2018-Jun-24 12:30N 49°45' W 124°44'4 7.4
2018-Jun-24 12:00N 49°47' W 124°48'4 7.6
2018-Jun-24 11:30N 49°49' W 124°53'4 7.7
2018-Jun-24 11:00N 49°52' W 124°58'4 7.9
2018-Jun-24 10:30N 49°54' W 125°02'5 9.0
2018-Jun-24 09:59N 49°57' W 125°08'4 8.4
2018-Jun-24 09:30N 50°00' W 125°12'5 9.9
2018-Jun-24 09:00N 50°05' W 125°15'510.2
2018-Jun-24 08:30N 50°08' W 125°21'5 9.3
2018-Jun-24 08:00N 50°13' W 125°23'4 8.7
2018-Jun-24 07:30N 50°17' W 125°25'43 8.6
2018-Jun-24 02:27N 50°30' W 126°29'19 7.8
2018-Jun-24 00:02N 50°41' W 126°53'1 9.1
2018-Jun-23 23:58N 50°41' W 126°54'5 8.7
2018-Jun-23 23:26N 50°44' W 126°60'4 8.6
2018-Jun-23 23:00N 50°47' W 127°04'4 8.3
2018-Jun-23 22:30N 50°49' W 127°10'4 8.6
2018-Jun-23 22:00N 50°51' W 127°15'4 8.4
2018-Jun-23 21:30N 50°54' W 127°21'4 7.9
2018-Jun-23 21:00N 50°56' W 127°26'4 8.6
2018-Jun-23 20:30N 50°58' W 127°32'4 8.4
2018-Jun-23 20:00N 51°01' W 127°36'4 8.4
2018-Jun-23 19:30N 51°04' W 127°41'4 8.8
2018-Jun-23 19:00N 51°08' W 127°46'4 8.6
2018-Jun-23 18:30N 51°11' W 127°49'11 9.0
2018-Jun-23 17:15N 51°22' W 127°52'4 9.2
2018-Jun-23 16:46N 51°27' W 127°52'2 9.0
2018-Jun-23 16:30N 51°29' W 127°52'4 8.8
2018-Jun-23 16:00N 51°34' W 127°53'4 8.9
2018-Jun-23 15:30N 51°38' W 127°53'5 9.0
2018-Jun-23 15:00N 51°42' W 127°54'4 8.9
2018-Jun-23 14:30N 51°47' W 127°55'4 8.5
2018-Jun-23 14:00N 51°51' W 127°55'4 8.7
2018-Jun-23 13:30N 51°55' W 127°55'4 8.9
2018-Jun-23 13:00N 51°60' W 127°56'4 8.5
2018-Jun-23 12:29N 52°04' W 127°58'4 9.0
2018-Jun-23 12:00N 52°05' W 128°05'4 7.8
2018-Jun-23 11:30N 52°08' W 128°08'4 7.6
2018-Jun-23 10:58N 52°12' W 128°08'4 8.6
2018-Jun-23 10:30N 52°14' W 128°14'4 8.3
2018-Jun-23 10:00N 52°15' W 128°20'4 7.8
2018-Jun-23 09:30N 52°16' W 128°26'4 8.4
2018-Jun-23 09:00N 52°20' W 128°29'5 9.1
2018-Jun-23 08:30N 52°25' W 128°29'5 8.5
2018-Jun-23 07:56N 52°29' W 128°28'5 8.1
2018-Jun-23 07:21N 52°34' W 128°29'90 8.3
2018-Jun-22 20:29N 53°47' W 129°56'4 9.2
2018-Jun-22 19:59N 53°50' W 130°02'4 8.9
2018-Jun-22 19:30N 53°53' W 130°07'4 8.2
2018-Jun-22 19:00N 53°56' W 130°11'4 8.5
2018-Jun-22 18:30N 54°01' W 130°13'4 8.2
2018-Jun-22 18:00N 54°04' W 130°16'4 8.1
2018-Jun-22 17:30N 54°08' W 130°19'4 8.4
2018-Jun-22 17:00N 54°12' W 130°21'4 8.2
2018-Jun-22 16:30N 54°16' W 130°22'1 2.7
2018-Jun-22 16:00N 54°17' W 130°21'0 0.0
2018-Jun-22 15:30N 54°17' W 130°21'0 0.0
2018-Jun-22 15:00N 54°17' W 130°21'0 0.0
2018-Jun-22 14:29N 54°17' W 130°21'0 0.0
2018-Jun-22 14:00N 54°17' W 130°21'0 0.0
2018-Jun-22 13:30N 54°17' W 130°21'0 0.0
2018-Jun-22 12:59N 54°17' W 130°21'0 0.0
2018-Jun-22 12:30N 54°17' W 130°21'0 0.0
2018-Jun-22 12:00N 54°17' W 130°21'0 0.0
2018-Jun-22 11:30N 54°17' W 130°21'0 0.0
2018-Jun-22 11:00N 54°17' W 130°21'0 0.0
2018-Jun-22 10:30N 54°17' W 130°21'0 0.0
2018-Jun-22 10:00N 54°18' W 130°21'0 0.0
2018-Jun-22 09:30N 54°17' W 130°21'0 0.0
2018-Jun-22 09:00N 54°17' W 130°21'0 0.0
2018-Jun-22 08:30N 54°17' W 130°21'0 0.0
2018-Jun-22 08:00N 54°17' W 130°21'0 0.0
2018-Jun-22 07:30N 54°17' W 130°21'0 0.0
2018-Jun-22 07:00N 54°17' W 130°21'0 0.0
2018-Jun-22 06:30N 54°17' W 130°21'0 0.0
2018-Jun-22 06:01N 54°17' W 130°21'0 0.0
2018-Jun-22 05:30N 54°17' W 130°21'0 0.0
2018-Jun-22 05:00N 54°17' W 130°21'0 0.0
2018-Jun-22 04:30N 54°17' W 130°21'0 0.0
2018-Jun-22 04:00N 54°17' W 130°21'0 0.0
2018-Jun-22 03:30N 54°17' W 130°21'0 0.0
2018-Jun-22 03:00N 54°17' W 130°21'0 0.0
2018-Jun-22 02:30N 54°17' W 130°21'0 0.0
2018-Jun-22 02:00N 54°18' W 130°21'0 0.0
2018-Jun-22 01:30N 54°17' W 130°21'0 0.0
2018-Jun-22 01:00N 54°17' W 130°21'0 0.0
2018-Jun-22 00:30N 54°18' W 130°21'0 0.0
2018-Jun-22 00:00N 54°17' W 130°21'0 0.0
2018-Jun-21 23:30N 54°18' W 130°21'0 0.0
2018-Jun-21 23:00N 54°17' W 130°21'0 0.0
2018-Jun-21 22:30N 54°18' W 130°21'0 0.0
2018-Jun-21 22:00N 54°17' W 130°21'0 0.0
2018-Jun-21 21:31N 54°17' W 130°21'0 0.0
2018-Jun-21 21:01N 54°17' W 130°21'0 0.0
2018-Jun-21 20:30N 54°17' W 130°21'0 0.0
2018-Jun-21 20:00N 54°17' W 130°21'0 0.0
2018-Jun-21 19:30N 54°17' W 130°21'0 0.0
2018-Jun-21 19:00N 54°17' W 130°21'0 0.0
2018-Jun-21 18:30N 54°17' W 130°21'2 3.3
2018-Jun-21 18:00N 54°19' W 130°20'1 1.5
2018-Jun-21 17:30N 54°19' W 130°19'0 0.0
2018-Jun-21 17:00N 54°19' W 130°19'2 3.2
2018-Jun-21 16:29N 54°18' W 130°21'1 1.6
2018-Jun-21 16:00N 54°17' W 130°21'0 0.0
2018-Jun-21 15:30N 54°17' W 130°21'0 0.0
2018-Jun-21 15:00N 54°17' W 130°21'0 0.0
2018-Jun-21 14:30N 54°17' W 130°21'0 0.0
2018-Jun-21 14:00N 54°17' W 130°21'0 0.0
2018-Jun-21 13:30N 54°17' W 130°21'0 0.0
2018-Jun-21 13:00N 54°17' W 130°21'0 0.0
2018-Jun-21 12:30N 54°17' W 130°21'0 0.0
2018-Jun-21 12:00N 54°18' W 130°21'0 0.0
2018-Jun-21 11:30N 54°17' W 130°21'0 0.0
2018-Jun-21 11:00N 54°17' W 130°21'0 0.0
2018-Jun-21 10:30N 54°17' W 130°21'0 0.0
2018-Jun-21 10:00N 54°17' W 130°21'0 0.0
2018-Jun-21 09:30N 54°17' W 130°21'0 0.0
2018-Jun-21 09:00N 54°17' W 130°21'0 0.0
2018-Jun-21 08:30N 54°17' W 130°21'0 0.0
2018-Jun-21 08:00N 54°17' W 130°21'0 0.0
2018-Jun-21 07:30N 54°17' W 130°21'0 0.0
2018-Jun-21 07:00N 54°17' W 130°21'0 0.0
2018-Jun-21 06:30N 54°17' W 130°21'0 0.0
2018-Jun-21 06:00N 54°17' W 130°21'0 0.0
2018-Jun-21 05:30N 54°17' W 130°21'0 0.0
2018-Jun-21 04:59N 54°17' W 130°21'0 0.0
2018-Jun-21 04:30N 54°17' W 130°21'0 0.0
2018-Jun-21 04:00N 54°17' W 130°21'0 0.0
2018-Jun-21 03:30N 54°17' W 130°21'0 0.0
2018-Jun-21 03:00N 54°17' W 130°21'0 0.0
2018-Jun-21 02:30N 54°17' W 130°21'0 0.0
2018-Jun-21 01:59N 54°17' W 130°21'0 0.0
2018-Jun-21 01:30N 54°17' W 130°21'0 0.0
2018-Jun-21 01:00N 54°17' W 130°21'0 0.0
2018-Jun-21 00:30N 54°17' W 130°21'0 0.0
2018-Jun-21 00:00N 54°17' W 130°21'0 0.0
2018-Jun-20 23:30N 54°17' W 130°21'0 0.0
2018-Jun-20 23:00N 54°17' W 130°21'0 0.0
2018-Jun-20 22:30N 54°17' W 130°21'0 0.0
2018-Jun-20 22:00N 54°17' W 130°21'0 0.0
2018-Jun-20 21:30N 54°17' W 130°21'0 0.0
2018-Jun-20 21:00N 54°17' W 130°21'0 0.0
2018-Jun-20 20:30N 54°17' W 130°21'0 0.0
2018-Jun-20 20:00N 54°17' W 130°21'0 0.0
2018-Jun-20 19:30N 54°17' W 130°21'0 0.0
2018-Jun-20 19:00N 54°17' W 130°21'0 0.0
2018-Jun-20 18:30N 54°17' W 130°21'0 0.0
2018-Jun-20 18:00N 54°17' W 130°21'0 0.0
2018-Jun-20 17:30N 54°17' W 130°21'0 0.0
2018-Jun-20 17:00N 54°17' W 130°21'0 0.0
2018-Jun-20 16:30N 54°17' W 130°21'0 0.0
2018-Jun-20 16:00N 54°17' W 130°21'0 0.0
2018-Jun-20 15:30N 54°17' W 130°21'0 0.0
2018-Jun-20 15:00N 54°17' W 130°21'0 0.0
2018-Jun-20 14:30N 54°17' W 130°21'0 0.0
2018-Jun-20 14:00N 54°17' W 130°21'0 0.0
2018-Jun-20 13:30N 54°17' W 130°21'0 0.0
2018-Jun-20 13:00N 54°17' W 130°21'0 0.0
2018-Jun-20 12:31N 54°17' W 130°21'0 0.0
2018-Jun-20 12:00N 54°17' W 130°21'0 0.1
2018-Jun-20 11:29N 54°17' W 130°21'0 0.1
2018-Jun-20 11:00N 54°17' W 130°21'0 0.0
2018-Jun-20 10:30N 54°17' W 130°21'0 0.0
2018-Jun-20 10:01N 54°17' W 130°21'0 0.0
2018-Jun-20 09:31N 54°17' W 130°21'0 0.0
2018-Jun-20 09:00N 54°17' W 130°21'0 0.0
2018-Jun-20 08:30N 54°17' W 130°21'0 0.0
2018-Jun-20 08:00N 54°17' W 130°21'0 0.0
2018-Jun-20 07:30N 54°17' W 130°21'0 0.0
2018-Jun-20 07:00N 54°17' W 130°21'0 0.0
2018-Jun-20 06:30N 54°17' W 130°21'0 0.0
2018-Jun-20 06:00N 54°17' W 130°21'0 0.0
2018-Jun-20 05:30N 54°17' W 130°21'0 0.0
2018-Jun-20 05:00N 54°17' W 130°21'0 0.0
2018-Jun-20 04:30N 54°17' W 130°21'0 0.0
2018-Jun-20 04:00N 54°17' W 130°21'0 0.0
2018-Jun-20 03:30N 54°17' W 130°21'0 0.0
2018-Jun-20 03:00N 54°17' W 130°21'0 0.0
2018-Jun-20 02:30N 54°17' W 130°21'0 0.0
2018-Jun-20 02:00N 54°17' W 130°21'0 0.0
2018-Jun-20 01:30N 54°17' W 130°21'0 0.0
2018-Jun-20 01:00N 54°17' W 130°21'0 0.0
2018-Jun-20 00:30N 54°18' W 130°21'0 0.0
2018-Jun-20 00:00N 54°17' W 130°21'0 0.0
2018-Jun-19 23:30N 54°17' W 130°21'0 0.0
2018-Jun-19 23:00N 54°17' W 130°21'0 0.0
2018-Jun-19 22:30N 54°17' W 130°21'0 0.0
2018-Jun-19 22:00N 54°17' W 130°21'0 0.0
2018-Jun-19 21:30N 54°17' W 130°21'0 0.0
2018-Jun-19 21:00N 54°17' W 130°21'0 0.0
2018-Jun-19 20:30N 54°17' W 130°21'0 0.0
2018-Jun-19 20:00N 54°17' W 130°21'0 0.0
2018-Jun-19 19:30N 54°17' W 130°21'0 0.0
2018-Jun-19 19:00N 54°17' W 130°21'0 0.0
2018-Jun-19 18:30N 54°17' W 130°21'0 0.0
2018-Jun-19 18:00N 54°17' W 130°21'0 0.0
2018-Jun-19 17:30N 54°17' W 130°21'0 0.0
2018-Jun-19 17:00N 54°17' W 130°21'0 0.0
2018-Jun-19 16:30N 54°17' W 130°21'0 0.0
2018-Jun-19 16:00N 54°17' W 130°21'0 0.0
2018-Jun-19 15:30N 54°17' W 130°21'0 0.0
2018-Jun-19 15:00N 54°17' W 130°21'0 0.0
2018-Jun-19 14:30N 54°17' W 130°21'0 0.0
2018-Jun-19 14:00N 54°17' W 130°21'0 0.0
2018-Jun-19 13:30N 54°17' W 130°21'0 0.0
2018-Jun-19 13:00N 54°17' W 130°21'0 0.1
2018-Jun-19 12:30N 54°17' W 130°21'0 0.1
2018-Jun-19 12:00N 54°17' W 130°21'0 0.0
2018-Jun-19 11:30N 54°17' W 130°21'0 0.0
2018-Jun-19 11:00N 54°17' W 130°21'0 0.0
2018-Jun-19 10:30N 54°17' W 130°21'0 0.0
2018-Jun-19 10:00N 54°17' W 130°21'0 0.0
2018-Jun-19 09:30N 54°17' W 130°21'0 0.0
2018-Jun-19 09:00N 54°17' W 130°21'0 0.0
2018-Jun-19 08:30N 54°17' W 130°21'0 0.0
2018-Jun-19 08:00N 54°17' W 130°21'0 0.0
2018-Jun-19 07:30N 54°17' W 130°21'0 0.0
2018-Jun-19 07:00N 54°17' W 130°21'0 0.0
2018-Jun-19 06:30N 54°17' W 130°21'0 0.0
2018-Jun-19 06:00N 54°17' W 130°21'0 0.0
2018-Jun-19 05:31N 54°17' W 130°21'0 0.0
2018-Jun-19 05:00N 54°17' W 130°21'0 0.1
2018-Jun-19 04:30N 54°17' W 130°21'0 0.0
2018-Jun-19 03:58N 54°17' W 130°21'0 0.1
2018-Jun-19 03:27N 54°17' W 130°21'0 0.0
2018-Jun-19 03:00N 54°17' W 130°21'0 0.0
2018-Jun-19 02:29N 54°17' W 130°21'0 0.0
2018-Jun-19 01:57N 54°17' W 130°21'0 0.0
2018-Jun-19 01:29N 54°17' W 130°21'0 0.0
2018-Jun-19 00:59N 54°17' W 130°21'0 0.0
2018-Jun-19 00:30N 54°17' W 130°21'2 4.3
2018-Jun-19 00:00N 54°19' W 130°24'3 6.0
2018-Jun-18 23:30N 54°20' W 130°29'4 7.2
2018-Jun-18 23:00N 54°23' W 130°31'4 7.5
2018-Jun-18 22:30N 54°27' W 130°31'8 0.7
2018-Jun-18 10:41N 54°33' W 130°39'3 6.8
2018-Jun-18 10:11N 54°32' W 130°44'2 6.2
2018-Jun-18 09:56N 54°32' W 130°47'2 4.6
2018-Jun-18 09:30N 54°31' W 130°50'0 0.1
2018-Jun-18 08:55N 54°31' W 130°50'3 6.3
2018-Jun-18 08:30N 54°29' W 130°53'4 7.0
2018-Jun-18 07:59N 54°27' W 130°57'3 6.0
2018-Jun-18 07:30N 54°25' W 131°01'3 6.6
2018-Jun-18 07:00N 54°24' W 131°07'4 7.2
2018-Jun-18 06:30N 54°22' W 131°12'3 7.1
2018-Jun-18 06:00N 54°20' W 131°17'3 3.8
2018-Jun-18 05:18N 54°19' W 131°22'1 2.0
2018-Jun-18 04:51N 54°19' W 131°20'1 3.0
2018-Jun-18 04:26N 54°20' W 131°18'1 2.9
2018-Jun-18 03:57N 54°21' W 131°18'1 2.7
2018-Jun-18 03:30N 54°23' W 131°17'2 3.1
2018-Jun-18 02:53N 54°24' W 131°15'1 1.0
2018-Jun-18 02:22N 54°23' W 131°15'1 1.9
2018-Jun-18 02:00N 54°23' W 131°16'2 2.8
2018-Jun-18 01:22N 54°21' W 131°17'1 2.8
2018-Jun-18 01:00N 54°20' W 131°17'2 3.5
2018-Jun-18 00:21N 54°19' W 131°14'2 6.9
2018-Jun-17 23:59N 54°19' W 131°10'2 4.1
2018-Jun-17 23:30N 54°18' W 131°07'1 2.1
2018-Jun-17 23:00N 54°18' W 131°08'1 2.6
2018-Jun-17 22:30N 54°20' W 131°09'1 2.6
2018-Jun-17 22:00N 54°21' W 131°10'2 3.3
2018-Jun-17 21:27N 54°22' W 131°13'2 3.1
2018-Jun-17 20:52N 54°20' W 131°13'1 1.7
2018-Jun-17 20:29N 54°20' W 131°14'1 2.1
2018-Jun-17 19:52N 54°21' W 131°15'3 1.6
2018-Jun-17 18:02N 54°24' W 131°14'0 2.8
2018-Jun-17 17:59N 54°24' W 131°14'2 2.4
2018-Jun-17 17:18N 54°23' W 131°16'1 2.8
2018-Jun-17 16:54N 54°21' W 131°16'1 3.0
2018-Jun-17 16:28N 54°20' W 131°16'0 0.2
2018-Jun-17 15:28N 54°20' W 131°16'4 2.5
2018-Jun-17 13:43N 54°24' W 131°13'1 2.9
2018-Jun-17 13:17N 54°25' W 131°11'2 5.9
2018-Jun-17 12:53N 54°25' W 131°07'3 8.3
2018-Jun-17 12:28N 54°25' W 131°01'4 7.5
2018-Jun-17 12:00N 54°28' W 130°57'0 0.5
2018-Jun-17 11:28N 54°28' W 130°57'0 0.0
2018-Jun-17 10:58N 54°28' W 130°57'0 0.0
2018-Jun-17 10:25N 54°28' W 130°57'0 0.0
2018-Jun-17 09:36N 54°28' W 130°57'0 0.0
2018-Jun-17 09:22N 54°28' W 130°57'0 0.0
2018-Jun-17 08:58N 54°28' W 130°57'0 0.6
2018-Jun-17 08:30N 54°28' W 130°57'3 6.6
2018-Jun-17 08:00N 54°25' W 131°01'4 8.9
2018-Jun-17 07:30N 54°24' W 131°08'4 9.0
2018-Jun-17 07:00N 54°22' W 131°15'1 1.6
2018-Jun-17 06:29N 54°22' W 131°16'1 2.7
2018-Jun-17 06:00N 54°20' W 131°17'1 3.0
2018-Jun-17 05:31N 54°19' W 131°17'1 1.0
2018-Jun-17 05:00N 54°19' W 131°18'1 1.5
2018-Jun-17 04:30N 54°20' W 131°17'1 2.8
2018-Jun-17 04:00N 54°21' W 131°17'1 2.8
2018-Jun-17 03:30N 54°22' W 131°16'1 2.8
2018-Jun-17 02:59N 54°24' W 131°15'0 0.5
2018-Jun-17 02:29N 54°24' W 131°15'1 1.4
2018-Jun-17 02:00N 54°23' W 131°15'1 2.6
2018-Jun-17 01:29N 54°22' W 131°15'1 2.6
2018-Jun-17 01:00N 54°20' W 131°15'2 3.0
2018-Jun-17 00:30N 54°19' W 131°14'3 7.0
2018-Jun-17 00:00N 54°18' W 131°08'1 2.7
2018-Jun-16 23:30N 54°18' W 131°06'1 2.5
2018-Jun-16 23:00N 54°19' W 131°08'1 2.6
2018-Jun-16 22:30N 54°20' W 131°09'1 2.8
2018-Jun-16 22:00N 54°21' W 131°11'1 2.8
2018-Jun-16 21:29N 54°22' W 131°11'5 5.3
2018-Jun-16 20:35N 54°27' W 131°10'0 1.4
2018-Jun-16 20:30N 54°27' W 131°10'1 1.6
2018-Jun-16 19:58N 54°27' W 131°08'3 2.2
2018-Jun-16 18:41N 54°29' W 131°05'0 2.8
2018-Jun-16 18:30N 54°30' W 131°06'2 2.0
2018-Jun-16 17:24N 54°28' W 131°09'2 2.0
2018-Jun-16 16:32N 54°30' W 131°10'1 7.4
2018-Jun-16 16:25N 54°30' W 131°12'1 0.9
2018-Jun-16 15:11N 54°29' W 131°13'1 2.6
2018-Jun-16 14:54N 54°29' W 131°12'2 2.6
2018-Jun-16 14:17N 54°28' W 131°10'1 2.5
2018-Jun-16 14:00N 54°28' W 131°11'3 6.2
2018-Jun-16 13:30N 54°29' W 131°15'2 2.0
2018-Jun-16 12:36N 54°28' W 131°12'0 2.6
2018-Jun-16 12:26N 54°28' W 131°12'2 2.5
2018-Jun-16 11:33N 54°27' W 131°09'2 6.2
2018-Jun-16 11:12N 54°25' W 131°07'2 7.1
2018-Jun-16 10:59N 54°24' W 131°06'4 7.4
2018-Jun-16 10:30N 54°21' W 131°02'4 7.2
2018-Jun-16 10:00N 54°19' W 130°56'4 7.4
2018-Jun-16 09:30N 54°18' W 130°50'4 7.5
2018-Jun-16 09:00N 54°17' W 130°44'4 7.5
2018-Jun-16 08:30N 54°16' W 130°38'4 7.8
2018-Jun-16 08:00N 54°15' W 130°32'4 7.4
2018-Jun-16 07:30N 54°14' W 130°26'3 5.4
2018-Jun-16 07:00N 54°14' W 130°21'3 6.6
2018-Jun-16 06:30N 54°18' W 130°22'0 0.7
2018-Jun-16 06:00N 54°17' W 130°22'0 0.5
2018-Jun-16 05:30N 54°17' W 130°22'0 0.5
2018-Jun-16 05:00N 54°17' W 130°21'0 0.0
2018-Jun-16 04:30N 54°17' W 130°21'0 0.0
2018-Jun-16 04:00N 54°17' W 130°21'0 0.0
2018-Jun-16 03:30N 54°17' W 130°21'0 0.0
2018-Jun-16 03:01N 54°17' W 130°21'0 0.0
2018-Jun-16 02:30N 54°17' W 130°21'0 0.0
2018-Jun-16 02:00N 54°17' W 130°21'0 0.0
2018-Jun-16 01:30N 54°17' W 130°21'0 0.0
2018-Jun-16 01:00N 54°17' W 130°21'0 0.0
2018-Jun-16 00:30N 54°17' W 130°21'0 0.0
2018-Jun-15 23:57N 54°17' W 130°21'0 0.0
2018-Jun-15 23:30N 54°17' W 130°21'3 5.2
2018-Jun-15 23:00N 54°20' W 130°19'1 2.5
2018-Jun-15 22:30N 54°20' W 130°17'0 0.0
2018-Jun-15 22:01N 54°20' W 130°17'1 1.0
2018-Jun-15 21:30N 54°20' W 130°18'1 1.5
2018-Jun-15 21:00N 54°19' W 130°19'0 0.7
2018-Jun-15 20:30N 54°19' W 130°19'0 0.1
2018-Jun-15 20:00N 54°19' W 130°19'3 5.3
2018-Jun-15 19:30N 54°17' W 130°22'5 9.9
2018-Jun-15 19:00N 54°12' W 130°20'2 3.7
2018-Jun-15 18:30N 54°14' W 130°18'0 0.0
2018-Jun-15 18:00N 54°14' W 130°18'0 0.0
2018-Jun-15 17:30N 54°14' W 130°18'0 0.0
2018-Jun-15 17:00N 54°14' W 130°18'0 0.0
2018-Jun-15 16:30N 54°14' W 130°18'0 0.0
2018-Jun-15 16:00N 54°14' W 130°18'0 0.0
2018-Jun-15 15:31N 54°14' W 130°18'0 0.5
2018-Jun-15 15:00N 54°13' W 130°18'2 3.5
2018-Jun-15 14:31N 54°13' W 130°21'5 9.3
2018-Jun-15 14:00N 54°18' W 130°22'0 0.3
2018-Jun-15 13:26N 54°17' W 130°21'0 0.1
2018-Jun-15 13:00N 54°17' W 130°21'0 0.1
2018-Jun-15 12:30N 54°17' W 130°21'0 0.0
2018-Jun-15 12:00N 54°17' W 130°21'0 0.0
2018-Jun-15 11:30N 54°17' W 130°21'0 0.0
2018-Jun-15 10:59N 54°17' W 130°21'0 0.0
2018-Jun-15 10:30N 54°17' W 130°21'0 0.0
2018-Jun-15 09:59N 54°17' W 130°21'0 0.0
2018-Jun-15 09:25N 54°17' W 130°21'0 0.0
2018-Jun-15 08:57N 54°17' W 130°21'0 0.0
2018-Jun-15 08:20N 54°17' W 130°21'  
Track history (hours):
 
Tides and Currents Weather Stations Pressure Air Temp Water Temp Dewpoint Dewpoint Depression Visibility Wind Speed Wind Dir Waves Ship Positions

Freeport

Last reported at 2018-Jun-25 08:00 UTC. Time now 2018-Jun-25 08:03 UTC.
Position N 49°12' W 123°05'.

Length 22 m; draft 3.1 m.

Type: Fishing. MMSI: 316006988.

Date/timePositionNaut miles runAvg speedWind from/ knotsBaromVisibWave heightAir tempDewpointWater temp
2018-Jun-25 08:00N 49°12' W 123°05'0 0.0
2018-Jun-25 07:30N 49°12' W 123°05'0 0.0
2018-Jun-25 07:00N 49°12' W 123°05'0 0.0
2018-Jun-25 06:27N 49°12' W 123°05'0 0.0
2018-Jun-25 05:59N 49°12' W 123°05'0 0.0
2018-Jun-25 05:29N 49°12' W 123°05'0 0.0
2018-Jun-25 05:00N 49°12' W 123°05'0 0.0
2018-Jun-25 04:30N 49°12' W 123°05'0 0.0
2018-Jun-25 04:00N 49°12' W 123°05'0 0.0
2018-Jun-25 03:30N 49°12' W 123°05'0 0.0
2018-Jun-25 03:00N 49°12' W 123°05'0 0.0
2018-Jun-25 02:30N 49°12' W 123°05'0 0.0
2018-Jun-25 01:59N 49°12' W 123°05'0 0.0
2018-Jun-25 01:30N 49°12' W 123°05'0 0.0
2018-Jun-25 01:00N 49°12' W 123°05'0 0.0
2018-Jun-25 00:30N 49°12' W 123°05'0 0.0
2018-Jun-25 00:00N 49°12' W 123°05'0 0.0
2018-Jun-24 23:30N 49°12' W 123°05'0 0.0
2018-Jun-24 23:00N 49°12' W 123°05'0 0.0
2018-Jun-24 22:30N 49°12' W 123°05'0 0.0
2018-Jun-24 22:00N 49°12' W 123°05'1 2.8
2018-Jun-24 21:29N 49°12' W 123°08'4 8.4
2018-Jun-24 21:00N 49°14' W 123°13'62 7.9
2018-Jun-24 13:10N 49°42' W 124°38'1 7.6
2018-Jun-24 13:00N 49°42' W 124°39'4 7.6
2018-Jun-24 12:30N 49°45' W 124°44'4 7.4
2018-Jun-24 12:00N 49°47' W 124°48'4 7.6
2018-Jun-24 11:30N 49°49' W 124°53'4 7.7
2018-Jun-24 11:00N 49°52' W 124°58'4 7.9
2018-Jun-24 10:30N 49°54' W 125°02'5 9.0
2018-Jun-24 09:59N 49°57' W 125°08'4 8.4
2018-Jun-24 09:30N 50°00' W 125°12'5 9.9
2018-Jun-24 09:00N 50°05' W 125°15'510.2
2018-Jun-24 08:30N 50°08' W 125°21'5 9.3
2018-Jun-24 08:00N 50°13' W 125°23'4 8.7
2018-Jun-24 07:30N 50°17' W 125°25'43 8.6
2018-Jun-24 02:27N 50°30' W 126°29'19 7.8
2018-Jun-24 00:02N 50°41' W 126°53'1 9.1
2018-Jun-23 23:58N 50°41' W 126°54'5 8.7
2018-Jun-23 23:26N 50°44' W 126°60'4 8.6
2018-Jun-23 23:00N 50°47' W 127°04'4 8.3
2018-Jun-23 22:30N 50°49' W 127°10'4 8.6
2018-Jun-23 22:00N 50°51' W 127°15'4 8.4
2018-Jun-23 21:30N 50°54' W 127°21'4 7.9
2018-Jun-23 21:00N 50°56' W 127°26'4 8.6
2018-Jun-23 20:30N 50°58' W 127°32'4 8.4
2018-Jun-23 20:00N 51°01' W 127°36'4 8.4
2018-Jun-23 19:30N 51°04' W 127°41'4 8.8
2018-Jun-23 19:00N 51°08' W 127°46'4 8.6
2018-Jun-23 18:30N 51°11' W 127°49'11 9.0
2018-Jun-23 17:15N 51°22' W 127°52'4 9.2
2018-Jun-23 16:46N 51°27' W 127°52'2 9.0
2018-Jun-23 16:30N 51°29' W 127°52'4 8.8
2018-Jun-23 16:00N 51°34' W 127°53'4 8.9
2018-Jun-23 15:30N 51°38' W 127°53'5 9.0
2018-Jun-23 15:00N 51°42' W 127°54'4 8.9
2018-Jun-23 14:30N 51°47' W 127°55'4 8.5
2018-Jun-23 14:00N 51°51' W 127°55'4 8.7
2018-Jun-23 13:30N 51°55' W 127°55'4 8.9
2018-Jun-23 13:00N 51°60' W 127°56'4 8.5
2018-Jun-23 12:29N 52°04' W 127°58'4 9.0
2018-Jun-23 12:00N 52°05' W 128°05'4 7.8
2018-Jun-23 11:30N 52°08' W 128°08'4 7.6
2018-Jun-23 10:58N 52°12' W 128°08'4 8.6
2018-Jun-23 10:30N 52°14' W 128°14'4 8.3
2018-Jun-23 10:00N 52°15' W 128°20'4 7.8
2018-Jun-23 09:30N 52°16' W 128°26'4 8.4
2018-Jun-23 09:00N 52°20' W 128°29'5 9.1
2018-Jun-23 08:30N 52°25' W 128°29'5 8.5
2018-Jun-23 07:56N 52°29' W 128°28'5 8.1
2018-Jun-23 07:21N 52°34' W 128°29'90 8.3
2018-Jun-22 20:29N 53°47' W 129°56'4 9.2
2018-Jun-22 19:59N 53°50' W 130°02'4 8.9
2018-Jun-22 19:30N 53°53' W 130°07'4 8.2
2018-Jun-22 19:00N 53°56' W 130°11'4 8.5
2018-Jun-22 18:30N 54°01' W 130°13'4 8.2
2018-Jun-22 18:00N 54°04' W 130°16'4 8.1
2018-Jun-22 17:30N 54°08' W 130°19'4 8.4
2018-Jun-22 17:00N 54°12' W 130°21'4 8.2
2018-Jun-22 16:30N 54°16' W 130°22'1 2.7
2018-Jun-22 16:00N 54°17' W 130°21'0 0.0
2018-Jun-22 15:30N 54°17' W 130°21'0 0.0
2018-Jun-22 15:00N 54°17' W 130°21'0 0.0
2018-Jun-22 14:29N 54°17' W 130°21'0 0.0
2018-Jun-22 14:00N 54°17' W 130°21'0 0.0
2018-Jun-22 13:30N 54°17' W 130°21'0 0.0
2018-Jun-22 12:59N 54°17' W 130°21'0 0.0
2018-Jun-22 12:30N 54°17' W 130°21'0 0.0
2018-Jun-22 12:00N 54°17' W 130°21'0 0.0
2018-Jun-22 11:30N 54°17' W 130°21'0 0.0
2018-Jun-22 11:00N 54°17' W 130°21'0 0.0
2018-Jun-22 10:30N 54°17' W 130°21'0 0.0
2018-Jun-22 10:00N 54°18' W 130°21'0 0.0
2018-Jun-22 09:30N 54°17' W 130°21'0 0.0
2018-Jun-22 09:00N 54°17' W 130°21'0 0.0
2018-Jun-22 08:30N 54°17' W 130°21'0 0.0
2018-Jun-22 08:00N 54°17' W 130°21'0 0.0
2018-Jun-22 07:30N 54°17' W 130°21'0 0.0
2018-Jun-22 07:00N 54°17' W 130°21'0 0.0
2018-Jun-22 06:30N 54°17' W 130°21'0 0.0
2018-Jun-22 06:01N 54°17' W 130°21'0 0.0
2018-Jun-22 05:30N 54°17' W 130°21'0 0.0
2018-Jun-22 05:00N 54°17' W 130°21'0 0.0
2018-Jun-22 04:30N 54°17' W 130°21'0 0.0
2018-Jun-22 04:00N 54°17' W 130°21'0 0.0
2018-Jun-22 03:30N 54°17' W 130°21'0 0.0
2018-Jun-22 03:00N 54°17' W 130°21'0 0.0
2018-Jun-22 02:30N 54°17' W 130°21'0 0.0
2018-Jun-22 02:00N 54°18' W 130°21'0 0.0
2018-Jun-22 01:30N 54°17' W 130°21'0 0.0
2018-Jun-22 01:00N 54°17' W 130°21'0 0.0
2018-Jun-22 00:30N 54°18' W 130°21'0 0.0
2018-Jun-22 00:00N 54°17' W 130°21'0 0.0
2018-Jun-21 23:30N 54°18' W 130°21'0 0.0
2018-Jun-21 23:00N 54°17' W 130°21'0 0.0
2018-Jun-21 22:30N 54°18' W 130°21'0 0.0
2018-Jun-21 22:00N 54°17' W 130°21'0 0.0
2018-Jun-21 21:31N 54°17' W 130°21'0 0.0
2018-Jun-21 21:01N 54°17' W 130°21'0 0.0
2018-Jun-21 20:30N 54°17' W 130°21'0 0.0
2018-Jun-21 20:00N 54°17' W 130°21'0 0.0
2018-Jun-21 19:30N 54°17' W 130°21'0 0.0
2018-Jun-21 19:00N 54°17' W 130°21'0 0.0
2018-Jun-21 18:30N 54°17' W 130°21'2 3.3
2018-Jun-21 18:00N 54°19' W 130°20'1 1.5
2018-Jun-21 17:30N 54°19' W 130°19'0 0.0
2018-Jun-21 17:00N 54°19' W 130°19'2 3.2
2018-Jun-21 16:29N 54°18' W 130°21'1 1.6
2018-Jun-21 16:00N 54°17' W 130°21'0 0.0
2018-Jun-21 15:30N 54°17' W 130°21'0 0.0
2018-Jun-21 15:00N 54°17' W 130°21'0 0.0
2018-Jun-21 14:30N 54°17' W 130°21'0 0.0
2018-Jun-21 14:00N 54°17' W 130°21'0 0.0
2018-Jun-21 13:30N 54°17' W 130°21'0 0.0
2018-Jun-21 13:00N 54°17' W 130°21'0 0.0
2018-Jun-21 12:30N 54°17' W 130°21'0 0.0
2018-Jun-21 12:00N 54°18' W 130°21'0 0.0
2018-Jun-21 11:30N 54°17' W 130°21'0 0.0
2018-Jun-21 11:00N 54°17' W 130°21'0 0.0
2018-Jun-21 10:30N 54°17' W 130°21'0 0.0
2018-Jun-21 10:00N 54°17' W 130°21'0 0.0
2018-Jun-21 09:30N 54°17' W 130°21'0 0.0
2018-Jun-21 09:00N 54°17' W 130°21'0 0.0
2018-Jun-21 08:30N 54°17' W 130°21'0 0.0
2018-Jun-21 08:00N 54°17' W 130°21'0 0.0
2018-Jun-21 07:30N 54°17' W 130°21'0 0.0
2018-Jun-21 07:00N 54°17' W 130°21'0 0.0
2018-Jun-21 06:30N 54°17' W 130°21'0 0.0
2018-Jun-21 06:00N 54°17' W 130°21'0 0.0
2018-Jun-21 05:30N 54°17' W 130°21'0 0.0
2018-Jun-21 04:59N 54°17' W 130°21'0 0.0
2018-Jun-21 04:30N 54°17' W 130°21'0 0.0
2018-Jun-21 04:00N 54°17' W 130°21'0 0.0
2018-Jun-21 03:30N 54°17' W 130°21'0 0.0
2018-Jun-21 03:00N 54°17' W 130°21'0 0.0
2018-Jun-21 02:30N 54°17' W 130°21'0 0.0
2018-Jun-21 01:59N 54°17' W 130°21'0 0.0
2018-Jun-21 01:30N 54°17' W 130°21'0 0.0
2018-Jun-21 01:00N 54°17' W 130°21'0 0.0
2018-Jun-21 00:30N 54°17' W 130°21'0 0.0
2018-Jun-21 00:00N 54°17' W 130°21'0 0.0
2018-Jun-20 23:30N 54°17' W 130°21'0 0.0
2018-Jun-20 23:00N 54°17' W 130°21'0 0.0
2018-Jun-20 22:30N 54°17' W 130°21'0 0.0
2018-Jun-20 22:00N 54°17' W 130°21'0 0.0
2018-Jun-20 21:30N 54°17' W 130°21'0 0.0
2018-Jun-20 21:00N 54°17' W 130°21'0 0.0
2018-Jun-20 20:30N 54°17' W 130°21'0 0.0
2018-Jun-20 20:00N 54°17' W 130°21'0 0.0
2018-Jun-20 19:30N 54°17' W 130°21'0 0.0
2018-Jun-20 19:00N 54°17' W 130°21'0 0.0
2018-Jun-20 18:30N 54°17' W 130°21'0 0.0
2018-Jun-20 18:00N 54°17' W 130°21'0 0.0
2018-Jun-20 17:30N 54°17' W 130°21'0 0.0
2018-Jun-20 17:00N 54°17' W 130°21'0 0.0
2018-Jun-20 16:30N 54°17' W 130°21'0 0.0
2018-Jun-20 16:00N 54°17' W 130°21'0 0.0
2018-Jun-20 15:30N 54°17' W 130°21'0 0.0
2018-Jun-20 15:00N 54°17' W 130°21'0 0.0
2018-Jun-20 14:30N 54°17' W 130°21'0 0.0
2018-Jun-20 14:00N 54°17' W 130°21'0 0.0
2018-Jun-20 13:30N 54°17' W 130°21'0 0.0
2018-Jun-20 13:00N 54°17' W 130°21'0 0.0
2018-Jun-20 12:31N 54°17' W 130°21'0 0.0
2018-Jun-20 12:00N 54°17' W 130°21'0 0.1
2018-Jun-20 11:29N 54°17' W 130°21'0 0.1
2018-Jun-20 11:00N 54°17' W 130°21'0 0.0
2018-Jun-20 10:30N 54°17' W 130°21'0 0.0
2018-Jun-20 10:01N 54°17' W 130°21'0 0.0
2018-Jun-20 09:31N 54°17' W 130°21'0 0.0
2018-Jun-20 09:00N 54°17' W 130°21'0 0.0
2018-Jun-20 08:30N 54°17' W 130°21'0 0.0
2018-Jun-20 08:00N 54°17' W 130°21'0 0.0
2018-Jun-20 07:30N 54°17' W 130°21'0 0.0
2018-Jun-20 07:00N 54°17' W 130°21'0 0.0
2018-Jun-20 06:30N 54°17' W 130°21'0 0.0
2018-Jun-20 06:00N 54°17' W 130°21'0 0.0
2018-Jun-20 05:30N 54°17' W 130°21'0 0.0
2018-Jun-20 05:00N 54°17' W 130°21'0 0.0
2018-Jun-20 04:30N 54°17' W 130°21'0 0.0
2018-Jun-20 04:00N 54°17' W 130°21'0 0.0
2018-Jun-20 03:30N 54°17' W 130°21'0 0.0
2018-Jun-20 03:00N 54°17' W 130°21'0 0.0
2018-Jun-20 02:30N 54°17' W 130°21'0 0.0
2018-Jun-20 02:00N 54°17' W 130°21'0 0.0
2018-Jun-20 01:30N 54°17' W 130°21'0 0.0
2018-Jun-20 01:00N 54°17' W 130°21'0 0.0
2018-Jun-20 00:30N 54°18' W 130°21'0 0.0
2018-Jun-20 00:00N 54°17' W 130°21'0 0.0
2018-Jun-19 23:30N 54°17' W 130°21'0 0.0
2018-Jun-19 23:00N 54°17' W 130°21'0 0.0
2018-Jun-19 22:30N 54°17' W 130°21'0 0.0
2018-Jun-19 22:00N 54°17' W 130°21'0 0.0
2018-Jun-19 21:30N 54°17' W 130°21'0 0.0
2018-Jun-19 21:00N 54°17' W 130°21'0 0.0
2018-Jun-19 20:30N 54°17' W 130°21'0 0.0
2018-Jun-19 20:00N 54°17' W 130°21'0 0.0
2018-Jun-19 19:30N 54°17' W 130°21'0 0.0
2018-Jun-19 19:00N 54°17' W 130°21'0 0.0
2018-Jun-19 18:30N 54°17' W 130°21'0 0.0
2018-Jun-19 18:00N 54°17' W 130°21'0 0.0
2018-Jun-19 17:30N 54°17' W 130°21'0 0.0
2018-Jun-19 17:00N 54°17' W 130°21'0 0.0
2018-Jun-19 16:30N 54°17' W 130°21'0 0.0
2018-Jun-19 16:00N 54°17' W 130°21'0 0.0
2018-Jun-19 15:30N 54°17' W 130°21'0 0.0
2018-Jun-19 15:00N 54°17' W 130°21'0 0.0
2018-Jun-19 14:30N 54°17' W 130°21'0 0.0
2018-Jun-19 14:00N 54°17' W 130°21'0 0.0
2018-Jun-19 13:30N 54°17' W 130°21'0 0.0
2018-Jun-19 13:00N 54°17' W 130°21'0 0.1
2018-Jun-19 12:30N 54°17' W 130°21'0 0.1
2018-Jun-19 12:00N 54°17' W 130°21'0 0.0
2018-Jun-19 11:30N 54°17' W 130°21'0 0.0
2018-Jun-19 11:00N 54°17' W 130°21'0 0.0
2018-Jun-19 10:30N 54°17' W 130°21'0 0.0
2018-Jun-19 10:00N 54°17' W 130°21'0 0.0
2018-Jun-19 09:30N 54°17' W 130°21'0 0.0
2018-Jun-19 09:00N 54°17' W 130°21'0 0.0
2018-Jun-19 08:30N 54°17' W 130°21'0 0.0
2018-Jun-19 08:00N 54°17' W 130°21'0 0.0
2018-Jun-19 07:30N 54°17' W 130°21'0 0.0
2018-Jun-19 07:00N 54°17' W 130°21'0 0.0
2018-Jun-19 06:30N 54°17' W 130°21'0 0.0
2018-Jun-19 06:00N 54°17' W 130°21'0 0.0
2018-Jun-19 05:31N 54°17' W 130°21'0 0.0
2018-Jun-19 05:00N 54°17' W 130°21'0 0.1
2018-Jun-19 04:30N 54°17' W 130°21'0 0.0
2018-Jun-19 03:58N 54°17' W 130°21'0 0.1
2018-Jun-19 03:27N 54°17' W 130°21'0 0.0
2018-Jun-19 03:00N 54°17' W 130°21'0 0.0
2018-Jun-19 02:29N 54°17' W 130°21'0 0.0
2018-Jun-19 01:57N 54°17' W 130°21'0 0.0
2018-Jun-19 01:29N 54°17' W 130°21'0 0.0
2018-Jun-19 00:59N 54°17' W 130°21'0 0.0
2018-Jun-19 00:30N 54°17' W 130°21'2 4.3
2018-Jun-19 00:00N 54°19' W 130°24'3 6.0
2018-Jun-18 23:30N 54°20' W 130°29'4 7.2
2018-Jun-18 23:00N 54°23' W 130°31'4 7.5
2018-Jun-18 22:30N 54°27' W 130°31'8 0.7
2018-Jun-18 10:41N 54°33' W 130°39'3 6.8
2018-Jun-18 10:11N 54°32' W 130°44'2 6.2
2018-Jun-18 09:56N 54°32' W 130°47'2 4.6
2018-Jun-18 09:30N 54°31' W 130°50'0 0.1
2018-Jun-18 08:55N 54°31' W 130°50'3 6.3
2018-Jun-18 08:30N 54°29' W 130°53'4 7.0
2018-Jun-18 07:59N 54°27' W 130°57'3 6.0
2018-Jun-18 07:30N 54°25' W 131°01'3 6.6
2018-Jun-18 07:00N 54°24' W 131°07'4 7.2
2018-Jun-18 06:30N 54°22' W 131°12'3 7.1
2018-Jun-18 06:00N 54°20' W 131°17'3 3.8
2018-Jun-18 05:18N 54°19' W 131°22'1 2.0
2018-Jun-18 04:51N 54°19' W 131°20'1 3.0
2018-Jun-18 04:26N 54°20' W 131°18'1 2.9
2018-Jun-18 03:57N 54°21' W 131°18'1 2.7
2018-Jun-18 03:30N 54°23' W 131°17'2 3.1
2018-Jun-18 02:53N 54°24' W 131°15'1 1.0
2018-Jun-18 02:22N 54°23' W 131°15'1 1.9
2018-Jun-18 02:00N 54°23' W 131°16'2 2.8
2018-Jun-18 01:22N 54°21' W 131°17'1 2.8
2018-Jun-18 01:00N 54°20' W 131°17'2 3.5
2018-Jun-18 00:21N 54°19' W 131°14'2 6.9
2018-Jun-17 23:59N 54°19' W 131°10'2 4.1
2018-Jun-17 23:30N 54°18' W 131°07'1 2.1
2018-Jun-17 23:00N 54°18' W 131°08'1 2.6
2018-Jun-17 22:30N 54°20' W 131°09'1 2.6
2018-Jun-17 22:00N 54°21' W 131°10'2 3.3
2018-Jun-17 21:27N 54°22' W 131°13'2 3.1
2018-Jun-17 20:52N 54°20' W 131°13'1 1.7
2018-Jun-17 20:29N 54°20' W 131°14'1 2.1
2018-Jun-17 19:52N 54°21' W 131°15'3 1.6
2018-Jun-17 18:02N 54°24' W 131°14'0 2.8
2018-Jun-17 17:59N 54°24' W 131°14'2 2.4
2018-Jun-17 17:18N 54°23' W 131°16'1 2.8
2018-Jun-17 16:54N 54°21' W 131°16'1 3.0
2018-Jun-17 16:28N 54°20' W 131°16'0 0.2
2018-Jun-17 15:28N 54°20' W 131°16'4 2.5
2018-Jun-17 13:43N 54°24' W 131°13'1 2.9
2018-Jun-17 13:17N 54°25' W 131°11'2 5.9
2018-Jun-17 12:53N 54°25' W 131°07'3 8.3
2018-Jun-17 12:28N 54°25' W 131°01'4 7.5
2018-Jun-17 12:00N 54°28' W 130°57'0 0.5
2018-Jun-17 11:28N 54°28' W 130°57'0 0.0
2018-Jun-17 10:58N 54°28' W 130°57'0 0.0
2018-Jun-17 10:25N 54°28' W 130°57'0 0.0
2018-Jun-17 09:36N 54°28' W 130°57'0 0.0
2018-Jun-17 09:22N 54°28' W 130°57'0 0.0
2018-Jun-17 08:58N 54°28' W 130°57'0 0.6
2018-Jun-17 08:30N 54°28' W 130°57'3 6.6
2018-Jun-17 08:00N 54°25' W 131°01'4 8.9
2018-Jun-17 07:30N 54°24' W 131°08'4 9.0
2018-Jun-17 07:00N 54°22' W 131°15'1 1.6
2018-Jun-17 06:29N 54°22' W 131°16'1 2.7
2018-Jun-17 06:00N 54°20' W 131°17'1 3.0
2018-Jun-17 05:31N 54°19' W 131°17'1 1.0
2018-Jun-17 05:00N 54°19' W 131°18'1 1.5
2018-Jun-17 04:30N 54°20' W 131°17'1 2.8
2018-Jun-17 04:00N 54°21' W 131°17'1 2.8
2018-Jun-17 03:30N 54°22' W 131°16'1 2.8
2018-Jun-17 02:59N 54°24' W 131°15'0 0.5
2018-Jun-17 02:29N 54°24' W 131°15'1 1.4
2018-Jun-17 02:00N 54°23' W 131°15'1 2.6
2018-Jun-17 01:29N 54°22' W 131°15'1 2.6
2018-Jun-17 01:00N 54°20' W 131°15'2 3.0
2018-Jun-17 00:30N 54°19' W 131°14'3 7.0
2018-Jun-17 00:00N 54°18' W 131°08'1 2.7
2018-Jun-16 23:30N 54°18' W 131°06'1 2.5
2018-Jun-16 23:00N 54°19' W 131°08'1 2.6
2018-Jun-16 22:30N 54°20' W 131°09'1 2.8
2018-Jun-16 22:00N 54°21' W 131°11'1 2.8
2018-Jun-16 21:29N 54°22' W 131°11'5 5.3
2018-Jun-16 20:35N 54°27' W 131°10'0 1.4
2018-Jun-16 20:30N 54°27' W 131°10'1 1.6
2018-Jun-16 19:58N 54°27' W 131°08'3 2.2
2018-Jun-16 18:41N 54°29' W 131°05'0 2.8
2018-Jun-16 18:30N 54°30' W 131°06'2 2.0
2018-Jun-16 17:24N 54°28' W 131°09'2 2.0
2018-Jun-16 16:32N 54°30' W 131°10'1 7.4
2018-Jun-16 16:25N 54°30' W 131°12'1 0.9
2018-Jun-16 15:11N 54°29' W 131°13'1 2.6
2018-Jun-16 14:54N 54°29' W 131°12'2 2.6
2018-Jun-16 14:17N 54°28' W 131°10'1 2.5
2018-Jun-16 14:00N 54°28' W 131°11'3 6.2
2018-Jun-16 13:30N 54°29' W 131°15'2 2.0
2018-Jun-16 12:36N 54°28' W 131°12'0 2.6
2018-Jun-16 12:26N 54°28' W 131°12'2 2.5
2018-Jun-16 11:33N 54°27' W 131°09'2 6.2
2018-Jun-16 11:12N 54°25' W 131°07'2 7.1
2018-Jun-16 10:59N 54°24' W 131°06'4 7.4
2018-Jun-16 10:30N 54°21' W 131°02'4 7.2
2018-Jun-16 10:00N 54°19' W 130°56'4 7.4
2018-Jun-16 09:30N 54°18' W 130°50'4 7.5
2018-Jun-16 09:00N 54°17' W 130°44'4 7.5
2018-Jun-16 08:30N 54°16' W 130°38'4 7.8
2018-Jun-16 08:00N 54°15' W 130°32'4 7.4
2018-Jun-16 07:30N 54°14' W 130°26'3 5.4
2018-Jun-16 07:00N 54°14' W 130°21'3 6.6
2018-Jun-16 06:30N 54°18' W 130°22'0 0.7
2018-Jun-16 06:00N 54°17' W 130°22'0 0.5
2018-Jun-16 05:30N 54°17' W 130°22'0 0.5
2018-Jun-16 05:00N 54°17' W 130°21'0 0.0
2018-Jun-16 04:30N 54°17' W 130°21'0 0.0
2018-Jun-16 04:00N 54°17' W 130°21'0 0.0
2018-Jun-16 03:30N 54°17' W 130°21'0 0.0
2018-Jun-16 03:01N 54°17' W 130°21'0 0.0
2018-Jun-16 02:30N 54°17' W 130°21'0 0.0
2018-Jun-16 02:00N 54°17' W 130°21'0 0.0
2018-Jun-16 01:30N 54°17' W 130°21'0 0.0
2018-Jun-16 01:00N 54°17' W 130°21'0 0.0
2018-Jun-16 00:30N 54°17' W 130°21'0 0.0
2018-Jun-15 23:57N 54°17' W 130°21'0 0.0
2018-Jun-15 23:30N 54°17' W 130°21'3 5.2
2018-Jun-15 23:00N 54°20' W 130°19'1 2.5
2018-Jun-15 22:30N 54°20' W 130°17'0 0.0
2018-Jun-15 22:01N 54°20' W 130°17'1 1.0
2018-Jun-15 21:30N 54°20' W 130°18'1 1.5
2018-Jun-15 21:00N 54°19' W 130°19'0 0.7
2018-Jun-15 20:30N 54°19' W 130°19'0 0.1
2018-Jun-15 20:00N 54°19' W 130°19'3 5.3
2018-Jun-15 19:30N 54°17' W 130°22'5 9.9
2018-Jun-15 19:00N 54°12' W 130°20'2 3.7
2018-Jun-15 18:30N 54°14' W 130°18'0 0.0
2018-Jun-15 18:00N 54°14' W 130°18'0 0.0
2018-Jun-15 17:30N 54°14' W 130°18'0 0.0
2018-Jun-15 17:00N 54°14' W 130°18'0 0.0
2018-Jun-15 16:30N 54°14' W 130°18'0 0.0
2018-Jun-15 16:00N 54°14' W 130°18'0 0.0
2018-Jun-15 15:31N 54°14' W 130°18'0 0.5
2018-Jun-15 15:00N 54°13' W 130°18'2 3.5
2018-Jun-15 14:31N 54°13' W 130°21'5 9.3
2018-Jun-15 14:00N 54°18' W 130°22'0 0.3
2018-Jun-15 13:26N 54°17' W 130°21'0 0.1
2018-Jun-15 13:00N 54°17' W 130°21'0 0.1
2018-Jun-15 12:30N 54°17' W 130°21'0 0.0
2018-Jun-15 12:00N 54°17' W 130°21'0 0.0
2018-Jun-15 11:30N 54°17' W 130°21'0 0.0
2018-Jun-15 10:59N 54°17' W 130°21'0 0.0
2018-Jun-15 10:30N 54°17' W 130°21'0 0.0
2018-Jun-15 09:59N 54°17' W 130°21'0 0.0
2018-Jun-15 09:25N 54°17' W 130°21'0 0.0
2018-Jun-15 08:57N 54°17' W 130°21'0 0.0
2018-Jun-15 08:20N 54°17' W 130°21'  

Dump ship's entire track history